createdAt,value
2019-02-18T00:01:27.932Z,42.63
2019-02-18T00:04:01.930Z,43.37
2019-02-18T00:06:35.468Z,37.73
2019-02-18T00:09:09.624Z,41.93
2019-02-18T00:11:44.393Z,33.07
2019-02-18T00:14:18.805Z,35.07
2019-02-18T00:16:52.347Z,38.33
2019-02-18T00:19:26.663Z,30.47
2019-02-18T00:22:03.525Z,34.00
2019-02-18T00:24:39.602Z,44.03
2019-02-18T00:27:13.655Z,29.13
2019-02-18T00:29:48.867Z,35.57
2019-02-18T00:32:22.624Z,36.30
2019-02-18T00:34:56.617Z,32.03
2019-02-18T00:37:30.094Z,29.10
2019-02-18T00:40:04.267Z,29.27
2019-02-18T00:42:37.943Z,27.10
2019-02-18T00:45:12.373Z,22.40
2019-02-18T00:47:48.161Z,24.50
2019-02-18T00:50:23.195Z,24.73
2019-02-18T00:52:56.615Z,19.20
2019-02-18T00:55:30.147Z,19.40
2019-02-18T00:58:06.311Z,22.07
2019-02-18T01:00:43.047Z,18.97
2019-02-18T01:03:17.719Z,24.30
2019-02-18T01:05:51.841Z,25.77
2019-02-18T01:08:25.674Z,26.27
2019-02-18T01:11:01.755Z,21.17
2019-02-18T01:13:35.283Z,23.87
2019-02-18T01:16:09.375Z,25.70
2019-02-18T01:18:45.561Z,22.13
2019-02-18T01:21:22.216Z,21.70
2019-02-18T01:23:58.830Z,23.90
2019-02-18T01:26:37.908Z,26.03
2019-02-18T01:29:15.545Z,20.73
2019-02-18T01:31:49.111Z,21.30
2019-02-18T01:34:22.685Z,20.40
2019-02-18T01:36:56.585Z,19.80
2019-02-18T01:39:30.109Z,18.87
2019-02-18T01:42:03.998Z,22.10
2019-02-18T01:44:39.613Z,25.33
2019-02-18T01:47:13.551Z,21.87
2019-02-18T01:49:47.203Z,25.37
2019-02-18T01:52:21.481Z,27.57
2019-02-18T01:54:54.967Z,27.63
2019-02-18T01:57:29.055Z,17.67
2019-02-18T02:00:02.553Z,23.33
2019-02-18T02:02:37.264Z,26.90
2019-02-18T02:05:12.282Z,24.97
2019-02-18T02:07:56.543Z,18.90
2019-02-18T02:10:29.097Z,19.40
2019-02-18T02:13:29.626Z,21.87
2019-02-18T02:16:05.035Z,22.23
2019-02-18T02:18:39.188Z,17.33
2019-02-18T02:21:14.115Z,16.87
2019-02-18T02:23:50.744Z,19.37
2019-02-18T02:26:27.588Z,19.53
2019-02-18T02:29:03.556Z,21.07
2019-02-18T02:31:38.012Z,20.37
2019-02-18T02:34:11.996Z,19.27
2019-02-18T02:36:46.146Z,18.33
2019-02-18T02:39:19.693Z,17.37
2019-02-18T02:41:53.161Z,21.07
2019-02-18T02:44:28.111Z,21.63
2019-02-18T02:47:01.685Z,21.33
2019-02-18T02:49:35.699Z,21.17
2019-02-18T02:52:09.315Z,27.70
2019-02-18T02:54:43.896Z,24.40
2019-02-18T02:57:17.426Z,19.63
2019-02-18T02:59:51.550Z,20.27
2019-02-18T03:02:26.388Z,22.53
2019-02-18T03:05:00.491Z,16.50
2019-02-18T03:07:36.496Z,18.57
2019-02-18T03:10:12.337Z,20.03
2019-02-18T03:12:47.668Z,20.73
2019-02-18T03:15:22.258Z,19.70
2019-02-18T03:17:56.074Z,20.83
2019-02-18T03:20:30.757Z,20.30
2019-02-18T03:23:12.550Z,22.33
2019-02-18T03:25:48.435Z,20.00
2019-02-18T03:29:16.366Z,21.50
2019-02-18T03:31:49.941Z,25.40
2019-02-18T03:34:31.118Z,23.23
2019-02-18T03:37:05.200Z,15.87
2019-02-18T03:39:38.803Z,19.53
2019-02-18T03:42:12.184Z,18.57
2019-02-18T03:44:48.169Z,20.33
2019-02-18T03:47:22.130Z,18.10
2019-02-18T03:49:55.655Z,26.20
2019-02-18T03:52:29.774Z,55.00
2019-02-18T03:55:03.292Z,27.83
2019-02-18T03:57:37.367Z,26.40
2019-02-18T04:00:10.932Z,23.37
2019-02-18T04:02:45.042Z,28.93
2019-02-18T04:05:18.823Z,31.47
2019-02-18T04:07:54.369Z,29.77
2019-02-18T04:10:32.581Z,25.17
2019-02-18T04:13:06.557Z,29.93
2019-02-18T04:15:40.404Z,18.33
2019-02-18T04:18:14.706Z,14.50
2019-02-18T04:20:48.224Z,19.00
2019-02-18T04:23:22.220Z,18.17
2019-02-18T04:25:55.675Z,17.07
2019-02-18T04:28:32.474Z,20.33
2019-02-18T04:31:06.262Z,19.20
2019-02-18T04:33:40.331Z,20.87
2019-02-18T04:36:13.914Z,22.17
2019-02-18T04:38:54.105Z,23.97
2019-02-18T04:41:25.147Z,28.47
2019-02-18T04:43:59.143Z,25.50
2019-02-18T04:46:32.706Z,26.80
2019-02-18T04:49:06.777Z,37.03
2019-02-18T04:51:40.265Z,15.53
2019-02-18T04:54:13.927Z,17.17
2019-02-18T04:56:47.452Z,17.03
2019-02-18T04:59:21.571Z,33.17
2019-02-18T05:01:55.444Z,26.60
2019-02-18T05:04:32.138Z,27.30
2019-02-18T05:07:05.744Z,33.93
2019-02-18T05:09:40.274Z,29.83
2019-02-18T05:12:14.313Z,27.83
2019-02-18T05:14:48.383Z,40.63
2019-02-18T05:17:22.026Z,37.87
2019-02-18T05:19:56.108Z,37.57
2019-02-18T05:22:29.617Z,42.67
2019-02-18T05:25:03.734Z,26.17
2019-02-18T05:27:36.902Z,36.30
2019-02-18T05:30:14.214Z,39.20
2019-02-18T05:32:51.167Z,35.40
2019-02-18T05:35:24.796Z,41.73
2019-02-18T05:37:59.927Z,44.63
2019-02-18T05:40:34.032Z,48.40
2019-02-18T05:43:07.639Z,87.50
2019-02-18T05:45:42.529Z,68.60
2019-02-18T05:48:16.111Z,87.63
2019-02-18T05:50:51.871Z,83.57
2019-02-18T05:53:25.733Z,69.37
2019-02-18T05:56:00.968Z,76.50
2019-02-18T05:58:34.612Z,59.93
2019-02-18T06:01:08.747Z,63.70
2019-02-18T06:03:42.606Z,59.83
2019-02-18T06:06:16.898Z,47.20
2019-02-18T06:08:51.236Z,69.80
2019-02-18T06:11:26.366Z,70.33
2019-02-18T06:14:00.931Z,59.13
2019-02-18T06:16:34.927Z,63.70
2019-02-18T06:19:08.529Z,58.37
2019-02-18T06:21:42.761Z,52.33
2019-02-18T06:24:16.601Z,62.43
2019-02-18T06:26:50.856Z,84.30
2019-02-18T06:29:25.218Z,71.47
2019-02-18T06:32:08.189Z,59.27
2019-02-18T06:34:42.826Z,50.33
2019-02-18T06:37:17.697Z,50.77
2019-02-18T06:39:51.841Z,53.73
2019-02-18T06:42:27.311Z,58.13
2019-02-18T06:45:14.611Z,59.17
2019-02-18T06:47:52.921Z,71.70
2019-02-18T06:50:27.085Z,43.20
2019-02-18T06:53:08.183Z,47.47
2019-02-18T06:55:45.788Z,37.57
2019-02-18T06:58:44.932Z,54.13
2019-02-18T07:01:44.375Z,41.83
2019-02-18T07:04:39.449Z,44.27
2019-02-18T07:07:54.326Z,71.73
2019-02-18T07:10:39.107Z,36.90
2019-02-18T07:13:14.741Z,42.80
2019-02-18T07:15:49.825Z,48.70
2019-02-18T07:18:24.277Z,36.93
2019-02-18T07:20:59.107Z,56.87
2019-02-18T07:23:33.873Z,54.30
2019-02-18T07:26:10.555Z,50.23
2019-02-18T07:28:45.475Z,60.47
2019-02-18T07:31:20.415Z,53.33
2019-02-18T07:33:57.691Z,30.90
2019-02-18T07:36:30.875Z,33.20
2019-02-18T07:39:10.380Z,41.03
2019-02-18T07:41:48.505Z,48.70
2019-02-18T07:44:27.981Z,37.43
2019-02-18T07:47:04.148Z,41.97
2019-02-18T07:49:43.539Z,25.93
2019-02-18T07:52:19.172Z,37.93
2019-02-18T07:54:53.553Z,78.37
2019-02-18T07:57:28.803Z,50.63
2019-02-18T08:00:05.702Z,46.37
2019-02-18T08:02:50.532Z,59.87
2019-02-18T08:05:33.427Z,38.00
2019-02-18T08:08:13.789Z,43.00
2019-02-18T08:10:53.693Z,35.53
2019-02-18T08:13:30.212Z,49.37
2019-02-18T08:16:12.404Z,45.43
2019-02-18T08:18:56.325Z,38.17
2019-02-18T08:21:32.302Z,38.30
2019-02-18T08:24:12.016Z,36.57
2019-02-18T08:26:51.886Z,17.23
2019-02-18T08:29:31.629Z,17.53
2019-02-18T08:32:13.313Z,28.77
2019-02-18T08:34:54.861Z,27.37
2019-02-18T08:37:30.367Z,19.93
2019-02-18T08:40:05.913Z,30.47
2019-02-18T08:42:59.635Z,24.00
2019-02-18T08:45:34.499Z,20.60
2019-02-18T08:48:08.986Z,30.03
2019-02-18T08:50:43.755Z,34.20
2019-02-18T08:53:18.659Z,15.87
2019-02-18T08:55:53.570Z,22.37
2019-02-18T08:58:28.169Z,20.57
2019-02-18T09:01:07.223Z,23.80
2019-02-18T09:03:47.341Z,22.90
2019-02-18T09:06:22.043Z,20.63
2019-02-18T09:08:58.406Z,21.77
2019-02-18T09:11:34.665Z,19.07
2019-02-18T09:14:10.537Z,14.00
2019-02-18T09:16:45.529Z,20.77
2019-02-18T09:19:20.885Z,19.77
2019-02-18T09:22:08.283Z,22.50
2019-02-18T09:24:49.633Z,22.93
2019-02-18T09:27:25.320Z,22.17
2019-02-18T09:30:03.942Z,17.70
2019-02-18T09:32:43.987Z,23.37
2019-02-18T09:35:23.288Z,18.13
2019-02-18T09:37:57.734Z,19.83
2019-02-18T09:40:43.914Z,17.00
2019-02-18T09:43:09.676Z,16.20
2019-02-18T09:45:44.130Z,15.83
2019-02-18T09:48:19.070Z,17.67
2019-02-18T09:50:53.435Z,17.47
2019-02-18T09:53:28.128Z,17.30
2019-02-18T09:56:01.614Z,23.77
2019-02-18T09:58:37.609Z,16.10
2019-02-18T10:01:13.188Z,16.20
2019-02-18T10:03:56.779Z,17.97
2019-02-18T10:06:32.330Z,20.33
2019-02-18T10:09:08.026Z,16.03
2019-02-18T10:11:43.479Z,17.80
2019-02-18T10:14:17.749Z,19.93
2019-02-18T10:16:59.879Z,19.27
2019-02-18T10:19:45.222Z,16.67
2019-02-18T10:22:23.501Z,21.83
2019-02-18T10:25:03.435Z,23.83
2019-02-18T10:27:44.442Z,16.30
2019-02-18T10:30:33.833Z,36.17
2019-02-18T10:33:14.723Z,30.33
2019-02-18T10:35:49.941Z,22.83
2019-02-18T10:38:24.056Z,20.10
2019-02-18T10:41:06.634Z,21.97
2019-02-18T10:43:36.555Z,18.03
2019-02-18T10:46:11.301Z,18.33
2019-02-18T10:48:45.891Z,32.00
2019-02-18T10:51:20.836Z,18.40
2019-02-18T10:53:58.694Z,19.33
2019-02-18T10:56:34.480Z,18.03
2019-02-18T10:59:18.531Z,22.17
2019-02-18T11:01:57.987Z,17.10
2019-02-18T11:04:33.842Z,20.43
2019-02-18T11:07:08.251Z,19.67
2019-02-18T11:09:43.680Z,18.33
2019-02-18T11:12:19.321Z,20.27
2019-02-18T11:14:54.896Z,18.13
2019-02-18T11:17:38.709Z,15.53
2019-02-18T11:20:32.147Z,19.23
2019-02-18T11:23:05.105Z,16.40
2019-02-18T11:25:39.461Z,14.27
2019-02-18T11:28:14.259Z,19.10
2019-02-18T11:31:00.264Z,18.07
2019-02-18T11:33:50.964Z,20.17
2019-02-18T11:36:27.082Z,18.50
2019-02-18T11:39:02.821Z,19.43
2019-02-18T11:41:39.221Z,15.27
2019-02-18T11:44:15.839Z,23.93
2019-02-18T11:46:53.195Z,14.93
2019-02-18T11:49:31.076Z,14.03
2019-02-18T11:52:07.252Z,16.83
2019-02-18T11:54:41.698Z,13.57
2019-02-18T11:57:18.954Z,16.37
2019-02-18T11:59:58.152Z,23.30
2019-02-18T12:02:33.837Z,18.97
2019-02-18T12:05:12.659Z,14.80
2019-02-18T12:07:48.806Z,14.87
2019-02-18T12:10:23.917Z,16.37
2019-02-18T12:12:57.955Z,16.30
2019-02-18T12:15:35.142Z,17.57
2019-02-18T12:18:10.896Z,19.13
2019-02-18T12:20:46.524Z,15.50
2019-02-18T12:23:20.990Z,19.67
2019-02-18T12:25:55.262Z,18.37
2019-02-18T12:28:29.477Z,17.03
2019-02-18T12:31:04.875Z,20.83
2019-02-18T12:33:39.151Z,18.47
2019-02-18T12:36:18.479Z,17.90
2019-02-18T12:38:53.760Z,21.70
2019-02-18T12:41:28.854Z,16.77
2019-02-18T12:44:03.520Z,23.10
2019-02-18T12:46:38.817Z,25.37
2019-02-18T12:49:12.941Z,16.93
2019-02-18T12:51:50.195Z,29.37
2019-02-18T12:54:24.368Z,19.70
2019-02-18T12:56:59.824Z,16.03
2019-02-18T12:59:34.401Z,22.53
2019-02-18T13:02:10.445Z,13.97
2019-02-18T13:04:46.261Z,23.20
2019-02-18T13:07:21.035Z,16.60
2019-02-18T13:09:55.581Z,16.10
2019-02-18T13:12:30.393Z,14.17
2019-02-18T13:15:06.902Z,15.67
2019-02-18T13:17:42.840Z,17.60
2019-02-18T13:20:19.839Z,16.67
2019-02-18T13:22:54.652Z,19.77
2019-02-18T13:25:29.347Z,18.37
2019-02-18T13:28:08.448Z,16.80
2019-02-18T13:30:42.030Z,16.40
2019-02-18T13:33:17.750Z,17.60
2019-02-18T13:35:51.820Z,16.97
2019-02-18T13:38:25.535Z,17.27
2019-02-18T13:41:03.316Z,14.30
2019-02-18T13:43:37.216Z,19.07
2019-02-18T13:46:11.652Z,18.03
2019-02-18T13:48:46.164Z,17.30
2019-02-18T13:51:24.441Z,17.63
2019-02-18T13:54:00.025Z,15.10
2019-02-18T13:56:34.348Z,20.63
2019-02-18T13:59:09.600Z,20.20
2019-02-18T14:01:46.015Z,19.23
2019-02-18T14:04:20.869Z,23.63
2019-02-18T14:06:57.649Z,21.70
2019-02-18T14:09:38.272Z,21.50
2019-02-18T14:12:16.530Z,20.93
2019-02-18T14:14:50.251Z,21.00
2019-02-18T14:17:24.364Z,25.10
2019-02-18T14:20:00.241Z,18.33
2019-02-18T14:22:38.216Z,19.67
2019-02-18T14:25:13.464Z,18.37
2019-02-18T14:27:48.220Z,18.20
2019-02-18T14:30:22.530Z,20.13
2019-02-18T14:32:58.009Z,19.80
2019-02-18T14:35:32.510Z,26.07
2019-02-18T14:38:08.073Z,20.50
2019-02-18T14:40:42.786Z,23.53
2019-02-18T14:43:18.333Z,24.90
2019-02-18T14:45:53.527Z,19.83
2019-02-18T14:48:27.485Z,20.27
2019-02-18T14:51:01.462Z,21.07
2019-02-18T14:53:36.327Z,17.00
2019-02-18T14:56:14.310Z,22.00
2019-02-18T14:58:54.560Z,27.77
2019-02-18T15:01:31.778Z,21.57
2019-02-18T15:04:07.548Z,17.97
2019-02-18T15:06:50.890Z,19.83
2019-02-18T15:09:26.212Z,20.17
2019-02-18T15:12:01.808Z,19.87
2019-02-18T15:14:35.994Z,21.13
2019-02-18T15:17:10.709Z,19.93
2019-02-18T15:19:43.927Z,21.87
2019-02-18T15:22:18.598Z,23.37
2019-02-18T15:24:52.722Z,27.10
2019-02-18T15:27:28.886Z,23.80
2019-02-18T15:30:04.986Z,24.27
2019-02-18T15:32:41.481Z,23.13
2019-02-18T15:35:17.346Z,24.93
2019-02-18T15:37:51.818Z,24.07
2019-02-18T15:40:27.524Z,24.37
2019-02-18T15:43:02.943Z,21.53
2019-02-18T15:45:39.397Z,31.07
2019-02-18T15:48:13.534Z,24.87
2019-02-18T15:50:46.901Z,21.63
2019-02-18T15:53:22.073Z,23.70
2019-02-18T15:55:55.669Z,22.30
2019-02-18T15:58:30.289Z,31.40
2019-02-18T16:01:05.394Z,26.33
2019-02-18T16:03:40.377Z,31.47
2019-02-18T16:06:14.207Z,32.03
2019-02-18T16:08:48.775Z,33.03
2019-02-18T16:11:24.218Z,40.43
2019-02-18T16:13:59.782Z,35.80
2019-02-18T16:16:33.985Z,31.43
2019-02-18T16:19:10.085Z,26.77
2019-02-18T16:21:46.716Z,30.00
2019-02-18T16:24:20.925Z,29.33
2019-02-18T16:26:55.159Z,28.83
2019-02-18T16:29:30.512Z,29.43
2019-02-18T16:32:06.891Z,31.30
2019-02-18T16:34:41.440Z,34.20
2019-02-18T16:37:17.837Z,31.03
2019-02-18T16:39:52.087Z,34.30
2019-02-18T16:42:26.603Z,35.70
2019-02-18T16:44:59.985Z,39.07
2019-02-18T16:47:35.537Z,34.50
2019-02-18T16:50:11.561Z,40.23
2019-02-18T16:52:46.541Z,44.90
2019-02-18T16:55:21.138Z,45.50
2019-02-18T16:57:56.187Z,47.27
2019-02-18T17:00:36.211Z,40.43
2019-02-18T17:03:11.269Z,46.73
2019-02-18T17:05:45.709Z,50.10
2019-02-18T17:08:21.859Z,47.00
2019-02-18T17:10:55.915Z,46.33
2019-02-18T17:13:30.561Z,51.17
2019-02-18T17:16:05.347Z,50.40
2019-02-18T17:18:40.266Z,65.57
2019-02-18T17:21:13.905Z,51.73
2019-02-18T17:23:47.864Z,63.27
2019-02-18T17:26:24.283Z,58.87
2019-02-18T17:28:59.587Z,61.10
2019-02-18T17:31:34.161Z,62.43
2019-02-18T17:34:08.883Z,79.23
2019-02-18T17:36:43.384Z,60.90
2019-02-18T17:39:17.504Z,58.40
2019-02-18T17:41:52.147Z,64.10
2019-02-18T17:44:26.983Z,62.40
2019-02-18T17:47:02.657Z,65.30
2019-02-18T17:49:38.821Z,64.60
2019-02-18T17:52:13.511Z,64.93
2019-02-18T17:54:47.986Z,66.90
2019-02-18T17:57:24.437Z,58.27
2019-02-18T17:59:59.383Z,61.53
2019-02-18T18:02:33.587Z,45.03
2019-02-18T18:05:09.558Z,62.90
2019-02-18T18:07:45.627Z,63.57
2019-02-18T18:10:20.039Z,72.53
2019-02-18T18:12:56.017Z,63.23
2019-02-18T18:15:30.733Z,87.07
2019-02-18T18:18:07.055Z,86.40
2019-02-18T18:20:41.778Z,99.23
2019-02-18T18:23:16.496Z,97.07
2019-02-18T18:25:52.445Z,97.17
2019-02-18T18:28:26.557Z,110.97
2019-02-18T18:31:01.227Z,122.57
2019-02-18T18:33:36.748Z,106.87
2019-02-18T18:36:12.327Z,104.87
2019-02-18T18:38:46.409Z,135.00
2019-02-18T18:41:21.110Z,111.67
2019-02-18T18:43:57.141Z,111.90
2019-02-18T18:46:31.016Z,112.87
2019-02-18T18:49:06.920Z,114.83
2019-02-18T18:51:42.033Z,117.03
2019-02-18T18:54:15.837Z,134.57
2019-02-18T18:56:53.603Z,109.53
2019-02-18T18:59:27.332Z,103.80
2019-02-18T19:02:03.690Z,111.43
2019-02-18T19:04:38.321Z,118.27
2019-02-18T19:07:13.171Z,131.33
2019-02-18T19:09:46.861Z,118.37
2019-02-18T19:12:22.068Z,114.03
2019-02-18T19:14:57.950Z,114.33
2019-02-18T19:17:31.139Z,108.03
2019-02-18T19:20:06.245Z,96.97
2019-02-18T19:22:40.705Z,92.77
2019-02-18T19:25:18.153Z,104.40
2019-02-18T19:27:51.876Z,109.73
2019-02-18T19:30:27.703Z,94.70
2019-02-18T19:33:01.302Z,98.47
2019-02-18T19:35:38.869Z,89.17
2019-02-18T19:38:13.573Z,95.57
2019-02-18T19:40:47.411Z,99.07
2019-02-18T19:43:21.745Z,96.63
2019-02-18T19:45:58.034Z,96.93
2019-02-18T19:48:34.091Z,97.10
2019-02-18T19:51:13.735Z,108.03
2019-02-18T19:53:49.666Z,99.13
2019-02-18T19:56:24.323Z,81.93
2019-02-18T19:58:58.689Z,84.80
2019-02-18T20:01:35.081Z,89.60
2019-02-18T20:04:09.270Z,95.33
2019-02-18T20:06:43.343Z,92.53
2019-02-18T20:09:17.394Z,102.73
2019-02-18T20:11:52.022Z,90.77
2019-02-18T20:14:26.158Z,99.57
2019-02-18T20:17:02.786Z,96.03
2019-02-18T20:19:36.943Z,112.60
2019-02-18T20:22:13.946Z,104.23
2019-02-18T20:24:48.939Z,128.27
2019-02-18T20:27:23.813Z,100.60
2019-02-18T20:29:58.661Z,107.37
2019-02-18T20:32:32.507Z,99.00
2019-02-18T20:35:07.385Z,124.13
2019-02-18T20:37:43.558Z,85.43
2019-02-18T20:40:18.406Z,106.03
2019-02-18T20:42:52.448Z,100.47
2019-02-18T20:45:26.645Z,76.80
2019-02-18T20:48:00.387Z,94.33
2019-02-18T20:50:35.018Z,82.43
2019-02-18T20:53:09.498Z,86.90
2019-02-18T20:55:44.279Z,84.30
2019-02-18T20:58:21.049Z,67.43
2019-02-18T21:00:54.462Z,76.07
2019-02-18T21:03:30.653Z,84.47
2019-02-18T21:06:04.655Z,76.23
2019-02-18T21:08:38.711Z,87.30
2019-02-18T21:11:12.918Z,71.97
2019-02-18T21:13:46.784Z,71.30
2019-02-18T21:16:20.996Z,87.07
2019-02-18T21:18:54.805Z,79.67
2019-02-18T21:21:29.513Z,106.43
2019-02-18T21:24:03.353Z,88.80
2019-02-18T21:26:37.623Z,79.73
2019-02-18T21:29:11.420Z,86.13
2019-02-18T21:31:45.712Z,87.67
2019-02-18T21:34:19.931Z,98.20
2019-02-18T21:36:55.560Z,70.00
2019-02-18T21:39:29.959Z,86.93
2019-02-18T21:42:04.144Z,72.10
2019-02-18T21:44:37.859Z,85.73
2019-02-18T21:47:12.761Z,73.43
2019-02-18T21:49:47.083Z,54.87
2019-02-18T21:52:21.192Z,66.73
2019-02-18T21:54:55.114Z,71.40
2019-02-18T21:57:29.960Z,57.97
2019-02-18T22:00:05.017Z,56.47
2019-02-18T22:02:39.059Z,53.80
2019-02-18T22:05:13.343Z,66.20
2019-02-18T22:07:48.081Z,53.70
2019-02-18T22:10:22.615Z,45.83
2019-02-18T22:12:56.976Z,63.77
2019-02-18T22:15:32.832Z,51.70
2019-02-18T22:18:06.851Z,42.17
2019-02-18T22:20:40.481Z,41.60
2019-02-18T22:23:14.635Z,42.60
2019-02-18T22:25:48.375Z,77.20
2019-02-18T22:28:22.620Z,51.13
2019-02-18T22:30:56.216Z,61.20
2019-02-18T22:33:30.365Z,52.00
2019-02-18T22:36:06.868Z,63.30
2019-02-18T22:38:41.578Z,44.70
2019-02-18T22:41:15.659Z,44.37
2019-02-18T22:43:49.891Z,52.53
2019-02-18T22:46:23.747Z,41.60
2019-02-18T22:48:59.555Z,44.13
2019-02-18T22:51:33.783Z,41.80
2019-02-18T22:54:08.104Z,39.87
2019-02-18T22:56:41.926Z,43.57
2019-02-18T22:59:16.573Z,91.60
2019-02-18T23:01:51.081Z,51.57
2019-02-18T23:04:25.663Z,52.07
2019-02-18T23:07:00.258Z,43.93
2019-02-18T23:09:33.761Z,36.47
2019-02-18T23:12:07.592Z,48.83
2019-02-18T23:14:41.586Z,38.40
2019-02-18T23:17:15.187Z,54.10
2019-02-18T23:19:49.330Z,34.03
2019-02-18T23:22:25.227Z,40.50
2019-02-18T23:24:59.618Z,36.27
2019-02-18T23:27:33.505Z,42.27
2019-02-18T23:30:07.846Z,39.97
2019-02-18T23:32:41.841Z,43.40
2019-02-18T23:35:16.309Z,44.83
2019-02-18T23:37:52.435Z,41.07
2019-02-18T23:40:27.651Z,43.03
2019-02-18T23:43:03.970Z,42.67
2019-02-18T23:45:38.325Z,46.97
2019-02-18T23:48:12.529Z,53.47
2019-02-18T23:50:46.413Z,47.70
2019-02-18T23:53:20.486Z,56.83
2019-02-18T23:55:54.079Z,51.23
2019-02-18T23:58:28.333Z,45.80
